Time;durP1;ratioP1;P1;durP2;ratioP2;P2;SDS_P1;SDS_P2;PMS_P1;PMS_P2;Temp;Humidity;BMP_temperature;BMP_pressure;BME280_temperature;BME280_humidity;BME280_pressure;Samples;Min_cycle;Max_cycle;Signal;HPM_P1;HPM_P2
2021/04/10 00:01:19;;;;;;;1.93;1.70;;;8.70;72.90;;;;;;4932598;29;20210;-67
2021/04/10 00:03:47;;;;;;;5.03;1.87;;;8.70;73.10;;;;;;4933709;29;20595;-67
2021/04/10 00:06:13;;;;;;;4.23;2.07;;;9.00;74.40;;;;;;4932300;29;20213;-67
2021/04/10 00:08:40;;;;;;;2.23;1.80;;;8.70;76.00;;;;;;4933567;29;20225;-67
2021/04/10 00:11:07;;;;;;;2.53;2.03;;;8.70;76.30;;;;;;4930298;29;20222;-67
2021/04/10 00:13:34;;;;;;;2.07;1.87;;;8.80;77.40;;;;;;4933449;29;20383;-67
2021/04/10 00:16:00;;;;;;;2.47;2.07;;;8.80;78.20;;;;;;4932990;29;20202;-67
2021/04/10 00:18:27;;;;;;;3.07;1.80;;;8.80;79.10;;;;;;4942885;28;20218;-67
2021/04/10 00:20:54;;;;;;;2.13;1.93;;;8.80;80.00;;;;;;4924730;29;20213;-67
2021/04/10 00:23:21;;;;;;;2.00;1.80;;;8.90;80.80;;;;;;4927553;29;20285;-67
2021/04/10 00:25:47;;;;;;;1.80;1.70;;;8.80;81.50;;;;;;4946336;28;20232;-67
2021/04/10 00:28:14;;;;;;;1.93;1.60;;;8.80;82.60;;;;;;4932080;29;20205;-67
2021/04/10 00:30:40;;;;;;;2.97;1.77;;;8.80;83.60;;;;;;4932351;29;20206;-67
2021/04/10 00:33:06;;;;;;;2.40;1.73;;;8.80;84.70;;;;;;4932837;29;20608;-67
2021/04/10 00:35:33;;;;;;;2.17;1.97;;;8.80;85.80;;;;;;4933101;29;20202;-67
2021/04/10 00:38:01;;;;;;;1.77;1.67;;;8.70;86.70;;;;;;4933106;29;20644;-67
2021/04/10 00:40:27;;;;;;;1.40;1.30;;;8.70;87.80;;;;;;4932355;29;20228;-67
2021/04/10 00:42:53;;;;;;;1.70;1.60;;;8.70;88.70;;;;;;4931253;29;20396;-67
2021/04/10 00:45:20;;;;;;;1.90;1.70;;;8.70;89.50;;;;;;4932558;29;20231;-67
2021/04/10 00:47:49;;;;;;;1.77;1.67;;;8.70;90.10;;;;;;4932209;29;20590;-67
2021/04/10 00:50:16;;;;;;;3.00;1.93;;;8.70;90.40;;;;;;4931134;29;20229;-67
2021/04/10 00:52:45;;;;;;;2.53;1.90;;;8.60;90.70;;;;;;4933024;29;20224;-67
2021/04/10 00:55:13;;;;;;;1.83;1.70;;;8.80;91.00;;;;;;4930550;29;20236;-67
2021/04/10 00:57:40;;;;;;;2.10;1.83;;;8.80;91.30;;;;;;4926814;29;20329;-67
2021/04/10 01:00:08;;;;;;;2.30;1.63;;;8.80;91.50;;;;;;4931916;29;20281;-67
2021/04/10 01:02:37;;;;;;;1.70;1.60;;;8.80;91.70;;;;;;4929812;29;20205;-67
2021/04/10 01:05:05;;;;;;;2.50;1.67;;;8.80;91.90;;;;;;4942954;28;20273;-67
2021/04/10 01:07:32;;;;;;;2.87;1.63;;;8.80;92.00;;;;;;4931930;29;20202;-67
2021/04/10 01:09:59;;;;;;;1.53;1.43;;;8.90;92.20;;;;;;4943179;28;20268;-67
2021/04/10 01:12:39;;;;;;;1.80;1.70;;;8.80;92.40;;;;;;4928257;29;20244;-67
2021/04/10 01:15:14;;;;;;;2.00;1.50;;;8.80;92.60;;;;;;4926168;29;20208;-67
2021/04/10 01:17:47;;;;;;;1.47;1.37;;;8.80;92.70;;;;;;4936491;29;20209;-67
2021/04/10 01:20:43;;;;;;;2.70;1.67;;;8.70;92.90;;;;;;4930562;29;20351;-67
2021/04/10 01:23:57;;;;;;;2.03;1.73;;;8.70;93.10;;;;;;4937579;28;20303;-64
2021/04/10 01:26:43;;;;;;;2.53;1.90;;;8.70;93.40;;;;;;4923615;29;20202;-66
2021/04/10 01:29:14;;;;;;;3.37;2.43;;;8.60;93.60;;;;;;4912900;29;20519;-66
2021/04/10 01:31:45;;;;;;;2.97;1.90;;;8.60;93.80;;;;;;4927836;29;20389;-67
2021/04/10 01:34:15;;;;;;;1.80;1.70;;;8.50;94.00;;;;;;4930610;29;20557;-67
2021/04/10 01:36:45;;;;;;;4.20;2.00;;;8.50;94.20;;;;;;4929785;29;20242;-67
2021/04/10 01:39:14;;;;;;;3.33;2.00;;;8.40;94.40;;;;;;4931030;29;20750;-66
2021/04/10 01:41:45;;;;;;;2.40;2.03;;;8.40;94.60;;;;;;4929685;29;20245;-66
2021/04/10 01:44:15;;;;;;;1.90;1.80;;;8.40;94.90;;;;;;4930240;29;20218;-66
2021/04/10 01:46:42;;;;;;;2.07;1.87;;;8.30;95.10;;;;;;4930126;29;20227;-66
2021/04/10 01:49:10;;;;;;;1.80;1.67;;;8.30;95.40;;;;;;4932151;29;20209;-66
2021/04/10 01:51:38;;;;;;;2.20;1.90;;;8.30;95.70;;;;;;4931393;29;20301;-66
2021/04/10 01:54:06;;;;;;;1.50;1.40;;;8.20;95.80;;;;;;4936805;29;20216;-66
2021/04/10 01:56:34;;;;;;;2.67;1.90;;;8.20;96.10;;;;;;4928127;29;20321;-66
2021/04/10 01:59:04;;;;;;;1.90;1.80;;;8.20;96.40;;;;;;4927757;29;20287;-66
2021/04/10 02:01:50;;;;;;;2.83;1.73;;;8.10;96.70;;;;;;4930279;29;20307;-67
2021/04/10 02:04:18;;;;;;;1.87;1.77;;;8.10;96.90;;;;;;4930445;29;20562;-66
2021/04/10 02:06:49;;;;;;;2.07;1.80;;;8.10;97.40;;;;;;4932263;29;20638;-66
2021/04/10 02:09:22;;;;;;;2.47;1.90;;;8.00;97.30;;;;;;4950316;28;20292;-66
2021/04/10 02:12:03;;;;;;;5.70;1.90;;;8.00;97.50;;;;;;4927993;29;20224;-66
2021/04/10 02:14:38;;;;;;;2.40;2.10;;;8.00;97.60;;;;;;4933739;29;20750;-67
2021/04/10 02:17:08;;;;;;;2.80;2.00;;;8.00;97.70;;;;;;4935078;29;20204;-67
2021/04/10 02:19:44;;;;;;;2.10;1.97;;;8.10;97.90;;;;;;4934094;29;20299;-67
2021/04/10 02:22:14;;;;;;;3.00;2.20;;;8.10;97.90;;;;;;4935226;29;20297;-67
2021/04/10 02:24:41;;;;;;;2.53;2.30;;;8.10;98.00;;;;;;4934293;29;20753;-67
2021/04/10 02:27:11;;;;;;;3.23;2.40;;;8.10;98.00;;;;;;4931960;29;20215;-66
2021/04/10 02:29:51;;;;;;;3.03;2.40;;;8.10;98.10;;;;;;4932947;29;20209;-67
2021/04/10 02:32:28;;;;;;;2.93;2.37;;;8.10;98.20;;;;;;4934380;29;20201;-67
2021/04/10 02:35:06;;;;;;;4.37;2.27;;;8.10;98.20;;;;;;4933845;29;20258;-67
2021/04/10 02:37:35;;;;;;;4.27;2.47;;;8.10;98.20;;;;;;4949897;28;20236;-67
2021/04/10 02:40:07;;;;;;;2.77;2.13;;;8.10;98.30;;;;;;4934492;29;20190;-67
2021/04/10 02:42:42;;;;;;;3.80;2.27;;;8.10;98.30;;;;;;4933745;29;20210;-67
2021/04/10 02:45:13;;;;;;;2.97;2.40;;;8.10;98.40;;;;;;4944363;28;20269;-67
2021/04/10 02:47:46;;;;;;;3.87;2.03;;;8.10;98.60;;;;;;4933361;29;20308;-67
2021/04/10 02:50:18;;;;;;;2.57;2.10;;;8.10;98.70;;;;;;4942895;28;20240;-67
2021/04/10 02:52:48;;;;;;;2.77;2.00;;;8.10;98.80;;;;;;4933064;29;20206;-67
2021/04/10 02:55:20;;;;;;;2.00;1.80;;;8.10;99.00;;;;;;4934616;29;20281;-67
2021/04/10 02:57:48;;;;;;;2.43;1.43;;;8.00;99.00;;;;;;4927543;29;20366;-67
2021/04/10 03:00:19;;;;;;;2.70;1.70;;;8.00;99.10;;;;;;4943386;28;20576;-67
2021/04/10 03:02:49;;;;;;;2.53;1.73;;;8.00;99.20;;;;;;4934902;28;20241;-67
2021/04/10 03:05:20;;;;;;;1.80;1.70;;;7.90;99.30;;;;;;4933036;29;20323;-67
2021/04/10 03:07:48;;;;;;;2.33;1.90;;;7.90;99.30;;;;;;4933207;29;20215;-67
2021/04/10 03:10:20;;;;;;;2.67;1.90;;;7.90;99.50;;;;;;4932956;29;20225;-67
2021/04/10 03:12:49;;;;;;;2.43;2.00;;;7.80;99.60;;;;;;4925330;29;20227;-67
2021/04/10 03:15:19;;;;;;;3.23;1.73;;;7.80;99.70;;;;;;4939176;28;20216;-67
2021/04/10 03:17:51;;;;;;;2.00;1.77;;;7.70;99.80;;;;;;4933054;29;20208;-67
2021/04/10 03:20:22;;;;;;;2.40;1.90;;;7.70;99.90;;;;;;4943315;28;20215;-67
2021/04/10 03:22:52;;;;;;;3.47;2.13;;;7.70;99.90;;;;;;4933080;29;20227;-67
2021/04/10 03:25:24;;;;;;;2.50;2.13;;;7.60;99.90;;;;;;4933780;29;20322;-67
2021/04/10 03:27:55;;;;;;;3.93;2.30;;;7.50;99.90;;;;;;4924484;29;20222;-67
2021/04/10 03:30:23;;;;;;;3.23;2.60;;;7.50;99.90;;;;;;4932512;29;20218;-67
2021/04/10 03:32:52;;;;;;;3.77;2.70;;;7.40;99.90;;;;;;4933014;29;20309;-67
2021/04/10 03:35:20;;;;;;;3.20;2.23;;;7.40;99.90;;;;;;4948527;28;20343;-68
2021/04/10 03:37:50;;;;;;;2.00;1.80;;;7.30;99.90;;;;;;4933009;29;20212;-67
2021/04/10 03:40:20;;;;;;;2.00;1.80;;;7.40;99.90;;;;;;4933818;29;20672;-67
2021/04/10 03:42:51;;;;;;;2.27;1.63;;;7.50;99.90;;;;;;4932311;29;20203;-66
2021/04/10 03:45:23;;;;;;;2.13;1.93;;;7.50;99.90;;;;;;4932425;29;20206;-66
2021/04/10 03:47:53;;;;;;;2.87;2.10;;;7.50;99.90;;;;;;4929736;29;20253;-67
2021/04/10 03:50:22;;;;;;;3.83;1.83;;;7.50;99.90;;;;;;4936565;28;20241;-67
2021/04/10 03:52:51;;;;;;;2.20;1.90;;;7.60;99.90;;;;;;4938890;29;20206;-66
2021/04/10 03:55:18;;;;;;;3.07;2.40;;;7.50;99.90;;;;;;4933117;29;20282;-67
2021/04/10 03:57:45;;;;;;;5.70;2.43;;;7.60;99.90;;;;;;4929743;28;20243;-66
2021/04/10 04:00:16;;;;;;;4.57;2.60;;;7.60;99.90;;;;;;4930774;29;20202;-66
2021/04/10 04:02:45;;;;;;;4.13;2.90;;;7.60;99.90;;;;;;4933781;29;20686;-67
2021/04/10 04:05:15;;;;;;;4.53;2.40;;;7.60;99.90;;;;;;4939155;29;20207;-66
2021/04/10 04:07:41;;;;;;;5.03;2.70;;;7.60;99.90;;;;;;4933222;29;20227;-66
2021/04/10 04:10:09;;;;;;;3.90;2.20;;;7.60;99.90;;;;;;4938902;29;20300;-67
2021/04/10 04:12:35;;;;;;;4.33;2.73;;;7.70;99.90;;;;;;4932174;29;20208;-66
2021/04/10 04:15:02;;;;;;;5.40;2.97;;;7.70;99.90;;;;;;4933033;29;20254;-67
2021/04/10 04:17:29;;;;;;;5.90;2.80;;;7.70;99.90;;;;;;4933156;29;20632;-66
2021/04/10 04:19:55;;;;;;;4.70;2.90;;;7.70;99.90;;;;;;4933559;29;20261;-66
2021/04/10 04:22:23;;;;;;;5.90;2.70;;;7.70;99.90;;;;;;4931824;29;20374;-66
2021/04/10 04:24:49;;;;;;;5.40;2.80;;;7.70;99.90;;;;;;4933380;29;20258;-66
2021/04/10 04:27:16;;;;;;;3.87;2.27;;;7.70;99.90;;;;;;4931533;29;20292;-66
2021/04/10 04:29:43;;;;;;;2.87;2.60;;;7.70;99.90;;;;;;4932482;29;20732;-67
2021/04/10 04:32:09;;;;;;;2.63;2.00;;;7.70;99.90;;;;;;4932607;29;20604;-66
2021/04/10 04:34:36;;;;;;;3.00;2.10;;;7.70;99.90;;;;;;4933037;29;20344;-66
2021/04/10 04:37:03;;;;;;;5.27;2.30;;;7.70;99.90;;;;;;4931365;29;20229;-67
2021/04/10 04:39:30;;;;;;;4.00;2.50;;;7.80;99.90;;;;;;4931687;29;20199;-66
2021/04/10 04:41:59;;;;;;;2.67;2.27;;;7.80;99.90;;;;;;4930851;29;20208;-67
2021/04/10 04:44:26;;;;;;;2.37;1.97;;;7.80;99.90;;;;;;4932561;29;20575;-66
2021/04/10 04:46:52;;;;;;;4.73;2.40;;;7.80;99.90;;;;;;4938679;28;20231;-66
2021/04/10 04:49:19;;;;;;;5.23;2.43;;;7.90;99.90;;;;;;4934536;29;20217;-66
2021/04/10 04:51:45;;;;;;;12.13;3.80;;;7.90;99.90;;;;;;4932969;29;20257;-66
2021/04/10 04:54:15;;;;;;;13.07;4.20;;;7.90;99.90;;;;;;4938296;29;20211;-66
2021/04/10 04:56:42;;;;;;;11.63;3.73;;;7.90;99.90;;;;;;4928791;29;20675;-66
2021/04/10 04:59:09;;;;;;;9.97;3.40;;;7.90;99.90;;;;;;4928494;29;20222;-66
2021/04/10 05:01:35;;;;;;;9.33;3.47;;;8.00;99.90;;;;;;4932060;29;20217;-66
2021/04/10 05:04:02;;;;;;;9.90;3.90;;;8.00;99.90;;;;;;4932229;29;20210;-66
2021/04/10 05:06:28;;;;;;;11.00;4.20;;;8.00;99.90;;;;;;4932141;29;20229;-66
2021/04/10 05:08:55;;;;;;;10.00;3.57;;;8.00;99.90;;;;;;4932676;29;20205;-66
2021/04/10 05:11:21;;;;;;;8.87;3.53;;;8.00;99.90;;;;;;4936080;28;20214;-66
2021/04/10 05:13:50;;;;;;;5.60;2.60;;;8.00;99.90;;;;;;4933938;28;20342;-66
2021/04/10 05:16:16;;;;;;;11.27;3.63;;;8.00;99.90;;;;;;4931684;29;20703;-67
2021/04/10 05:18:43;;;;;;;12.17;4.47;;;8.10;99.90;;;;;;4931993;29;20991;-67
2021/04/10 05:21:09;;;;;;;11.17;4.03;;;8.10;99.90;;;;;;4931981;29;20200;-66
2021/04/10 05:23:37;;;;;;;8.23;3.93;;;8.10;99.90;;;;;;4930626;29;20236;-66
2021/04/10 05:26:04;;;;;;;10.87;4.40;;;8.10;99.90;;;;;;4943834;28;20213;-66
2021/04/10 05:28:30;;;;;;;10.23;5.00;;;8.10;99.90;;;;;;4931401;29;20571;-66
2021/04/10 05:31:01;;;;;;;8.93;4.33;;;8.00;99.90;;;;;;4945835;28;20279;-66
2021/04/10 05:33:28;;;;;;;8.17;4.10;;;8.00;99.90;;;;;;4931900;29;20216;-67
2021/04/10 05:35:54;;;;;;;9.43;4.20;;;8.00;99.90;;;;;;4931583;29;20200;-66
2021/04/10 05:38:21;;;;;;;6.07;3.20;;;8.00;99.90;;;;;;4932148;29;20225;-66
2021/04/10 05:40:47;;;;;;;4.77;3.37;;;8.00;99.90;;;;;;4929743;29;20220;-67
2021/04/10 05:43:14;;;;;;;7.33;3.80;;;8.00;99.90;;;;;;4931246;29;20231;-67
2021/04/10 05:45:40;;;;;;;5.27;3.30;;;8.10;99.90;;;;;;4930953;29;20219;-67
2021/04/10 05:48:08;;;;;;;5.47;3.27;;;8.10;99.90;;;;;;4930531;29;20201;-67
2021/04/10 05:50:34;;;;;;;4.97;3.13;;;8.10;99.90;;;;;;4931482;29;20220;-67
2021/04/10 05:53:01;;;;;;;4.47;2.87;;;8.20;99.90;;;;;;4932900;29;20213;-67
2021/04/10 05:55:28;;;;;;;7.60;2.90;;;8.20;99.90;;;;;;4930867;29;20195;-67
2021/04/10 05:57:55;;;;;;;4.80;3.00;;;8.20;99.90;;;;;;4929507;29;20316;-67
2021/04/10 06:00:22;;;;;;;2.73;2.20;;;8.30;99.90;;;;;;4931249;29;20234;-67
2021/04/10 06:02:52;;;;;;;4.20;1.97;;;8.30;99.90;;;;;;4931983;29;20201;-67
2021/04/10 06:05:21;;;;;;;3.80;1.93;;;8.40;99.90;;;;;;4930475;29;20219;-67
2021/04/10 06:07:47;;;;;;;4.80;2.00;;;8.40;99.90;;;;;;4931397;29;20202;-67
2021/04/10 06:10:15;;;;;;;1.57;1.30;;;8.40;99.90;;;;;;4931365;29;20240;-67
2021/04/10 06:12:42;;;;;;;3.10;1.30;;;8.40;99.90;;;;;;4929057;29;20243;-67
2021/04/10 06:15:10;;;;;;;1.93;1.03;;;8.50;99.90;;;;;;4929290;29;20321;-67
2021/04/10 06:17:37;;;;;;;3.07;1.33;;;8.50;99.90;;;;;;4931632;29;20202;-67
2021/04/10 06:20:05;;;;;;;2.50;1.17;;;8.60;99.90;;;;;;4931083;29;20306;-67
2021/04/10 06:22:32;;;;;;;2.10;1.33;;;8.70;99.90;;;;;;4931902;29;20210;-67
2021/04/10 06:24:59;;;;;;;3.30;1.47;;;8.80;99.90;;;;;;4930827;29;20233;-67
2021/04/10 06:27:25;;;;;;;2.37;0.93;;;8.90;99.90;;;;;;4930093;29;20745;-67
2021/04/10 06:29:52;;;;;;;1.33;1.00;;;8.90;99.90;;;;;;4930970;29;20288;-67
2021/04/10 06:32:19;;;;;;;2.13;0.90;;;9.00;99.90;;;;;;4938392;28;20673;-67
2021/04/10 06:34:45;;;;;;;2.53;1.27;;;9.10;99.90;;;;;;4926618;29;20710;-67
2021/04/10 06:37:11;;;;;;;1.27;0.90;;;9.10;99.90;;;;;;4931600;29;20371;-67
2021/04/10 06:39:39;;;;;;;0.97;0.80;;;9.20;99.90;;;;;;4930063;29;20316;-67
2021/04/10 06:42:06;;;;;;;1.10;1.00;;;9.20;99.90;;;;;;4929271;29;20195;-67
2021/04/10 06:44:32;;;;;;;0.90;0.90;;;9.30;99.90;;;;;;4930787;29;20317;-67
2021/04/10 06:47:02;;;;;;;2.83;1.23;;;9.30;99.90;;;;;;4931178;29;20325;-67
2021/04/10 06:49:30;;;;;;;2.73;1.40;;;9.40;99.90;;;;;;4931328;29;20286;-67
2021/04/10 06:51:57;;;;;;;2.43;1.50;;;9.50;99.90;;;;;;4934084;29;20316;-67
2021/04/10 06:54:26;;;;;;;2.43;1.80;;;9.50;99.90;;;;;;4938084;29;20208;-67
2021/04/10 06:57:00;;;;;;;2.63;1.80;;;9.60;99.90;;;;;;4929409;29;20268;-65
2021/04/10 06:59:37;;;;;;;2.33;1.60;;;9.60;99.90;;;;;;4942205;28;20217;-66
2021/04/10 07:02:09;;;;;;;5.30;2.33;;;9.70;99.90;;;;;;4945687;28;20206;-66
2021/04/10 07:04:36;;;;;;;9.87;3.70;;;9.70;99.90;;;;;;4925756;29;20652;-66
2021/04/10 07:07:03;;;;;;;22.70;7.20;;;9.90;99.90;;;;;;4932171;29;20237;-66
2021/04/10 07:09:30;;;;;;;24.97;9.60;;;10.10;99.90;;;;;;4933268;29;20358;-66
2021/04/10 07:11:57;;;;;;;24.03;9.57;;;10.40;99.90;;;;;;4932210;29;20221;-66
2021/04/10 07:14:24;;;;;;;23.17;9.13;;;10.60;99.90;;;;;;4948488;28;20694;-66
2021/04/10 07:16:50;;;;;;;16.47;6.87;;;10.70;99.90;;;;;;4934413;29;20367;-66
2021/04/10 07:19:17;;;;;;;20.37;7.17;;;10.70;99.90;;;;;;4934425;29;20647;-67
2021/04/10 07:21:43;;;;;;;10.57;5.47;;;10.80;99.90;;;;;;4936823;28;21049;-67
2021/04/10 07:24:10;;;;;;;8.93;4.30;;;10.90;99.90;;;;;;4933215;29;20303;-66
2021/04/10 07:26:48;;;;;;;8.30;3.67;;;11.10;99.90;;;;;;4930716;29;20208;-66
2021/04/10 07:29:30;;;;;;;4.23;2.87;;;11.40;99.70;;;;;;4924106;29;20287;-66
2021/04/10 07:31:58;;;;;;;11.30;3.30;;;11.70;99.20;;;;;;4933582;29;20306;-66
2021/04/10 07:34:25;;;;;;;8.67;3.63;;;12.00;98.70;;;;;;4934601;29;20263;-66
2021/04/10 07:36:59;;;;;;;6.97;3.30;;;12.60;97.90;;;;;;4927628;29;20294;-66
2021/04/10 07:39:26;;;;;;;6.83;3.60;;;13.00;96.80;;;;;;4934388;29;20566;-66
2021/04/10 07:42:00;;;;;;;9.23;3.23;;;13.30;96.00;;;;;;4932069;29;20203;-67
2021/04/10 07:44:38;;;;;;;5.90;2.63;;;13.80;94.90;;;;;;4933444;29;20317;-66
2021/04/10 07:47:06;;;;;;;3.60;2.43;;;14.60;93.60;;;;;;4933676;29;20570;-66
2021/04/10 07:49:33;;;;;;;5.53;2.07;;;15.40;91.90;;;;;;4932594;29;20214;-67
2021/04/10 07:52:03;;;;;;;3.07;2.40;;;16.50;90.10;;;;;;4936013;29;20227;-66
2021/04/10 07:54:31;;;;;;;4.83;2.37;;;17.80;84.10;;;;;;4936634;29;20255;-66
2021/04/10 07:57:00;;;;;;;3.10;1.90;;;18.50;78.30;;;;;;4929454;29;20271;-67
2021/04/10 07:59:27;;;;;;;5.10;2.00;;;18.80;74.30;;;;;;4930126;29;20201;-66
2021/04/10 08:02:07;;;;;;;3.70;1.77;;;18.80;72.60;;;;;;4933555;29;20201;-66
2021/04/10 08:04:34;;;;;;;7.20;3.30;;;18.70;71.30;;;;;;4932784;29;20205;-67
2021/04/10 08:07:01;;;;;;;4.47;2.50;;;18.40;68.50;;;;;;4932939;29;20202;-67
2021/04/10 08:09:32;;;;;;;5.97;3.13;;;18.00;68.80;;;;;;4933120;29;20673;-66
2021/04/10 08:11:59;;;;;;;4.27;2.47;;;17.80;67.90;;;;;;4931525;29;20232;-66
2021/04/10 08:14:39;;;;;;;5.57;2.60;;;17.70;67.20;;;;;;4944510;28;20210;-67
2021/04/10 08:17:07;;;;;;;5.27;1.70;;;17.30;65.70;;;;;;4928785;29;20232;-66
2021/04/10 08:19:34;;;;;;;5.23;2.10;;;16.90;66.00;;;;;;4943425;28;20220;-67
2021/04/10 08:22:01;;;;;;;6.30;1.73;;;16.60;65.20;;;;;;4929606;29;20197;-66
2021/04/10 08:24:37;;;;;;;7.90;1.83;;;16.20;65.30;;;;;;4933611;29;20212;-66
2021/04/10 08:27:06;;;;;;;3.10;1.40;;;15.80;64.60;;;;;;4930938;29;20575;-66
2021/04/10 08:29:33;;;;;;;3.77;1.73;;;15.50;65.20;;;;;;4933258;29;20297;-66
2021/04/10 08:32:01;;;;;;;3.90;1.40;;;15.30;65.10;;;;;;4932864;29;20234;-66
2021/04/10 08:34:29;;;;;;;2.50;0.90;;;15.10;65.50;;;;;;4932938;29;20701;-66
2021/04/10 08:36:58;;;;;;;4.37;1.43;;;15.00;66.30;;;;;;4932457;29;20208;-66
2021/04/10 08:39:32;;;;;;;4.43;0.97;;;14.90;66.30;;;;;;4933148;29;20565;-66
2021/04/10 08:42:00;;;;;;;3.73;1.37;;;14.80;65.60;;;;;;4929513;29;20247;-66
2021/04/10 08:44:32;;;;;;;1.20;1.10;;;14.80;65.90;;;;;;4930974;29;20588;-65
2021/04/10 08:47:00;;;;;;;3.33;1.40;;;14.70;65.90;;;;;;4932163;29;20214;-66
2021/04/10 08:49:30;;;;;;;3.33;1.17;;;14.80;65.60;;;;;;4932921;29;20254;-66
2021/04/10 08:52:03;;;;;;;3.70;1.20;;;14.80;65.30;;;;;;4934472;29;20257;-65
2021/04/10 08:54:33;;;;;;;6.67;1.50;;;15.00;65.00;;;;;;4935914;29;20291;-66
2021/04/10 08:57:06;;;;;;;5.43;1.50;;;15.20;64.70;;;;;;4929023;29;20280;-66
2021/04/10 08:59:39;;;;;;;2.73;1.23;;;15.40;63.70;;;;;;4930046;29;20350;-65
2021/04/10 09:02:12;;;;;;;7.00;1.73;;;15.60;63.30;;;;;;4932156;29;20302;-66
2021/04/10 09:05:04;;;;;;;5.20;1.70;;;15.70;62.30;;;;;;4931393;29;20201;-66
2021/04/10 09:08:01;;;;;;;3.57;1.50;;;15.80;62.70;;;;;;4932279;29;20231;-66
2021/04/10 09:10:47;;;;;;;4.40;1.50;;;16.00;61.50;;;;;;4891265;29;20207;-66
2021/04/10 09:13:47;;;;;;;2.30;1.30;;;16.10;60.90;;;;;;4891122;29;20234;-65
2021/04/10 09:16:40;;;;;;;2.03;1.10;;;16.20;60.40;;;;;;4853117;29;20473;-66
2021/04/10 09:19:14;;;;;;;3.00;1.00;;;16.30;60.30;;;;;;4762283;29;20298;-66
2021/04/10 09:21:44;;;;;;;4.47;1.23;;;16.40;59.80;;;;;;4780329;29;20213;-66
2021/04/10 09:24:25;;;;;;;1.90;1.20;;;16.30;59.60;;;;;;4765971;29;20206;-66
2021/04/10 09:26:57;;;;;;;2.10;1.20;;;16.30;59.60;;;;;;4778868;29;20254;-67
2021/04/10 09:29:25;;;;;;;3.10;1.37;;;16.30;59.70;;;;;;4765521;30;20737;-65
2021/04/10 09:31:56;;;;;;;4.50;1.00;;;16.30;59.50;;;;;;4775259;29;20300;-66
2021/04/10 09:34:51;;;;;;;5.57;1.40;;;16.30;59.20;;;;;;4781509;29;20699;-67
2021/04/10 09:37:49;;;;;;;3.87;1.23;;;16.20;58.70;;;;;;4757984;29;20305;-66
2021/04/10 09:40:24;;;;;;;1.50;1.10;;;16.00;58.90;;;;;;4779771;29;20311;-67
2021/04/10 09:42:53;;;;;;;1.73;1.10;;;15.90;59.20;;;;;;4779961;29;20412;-66
2021/04/10 09:45:29;;;;;;;1.67;1.20;;;15.90;59.00;;;;;;4808902;29;20716;-66
2021/04/10 09:48:15;;;;;;;2.10;1.47;;;15.80;58.90;;;;;;4809832;29;20224;-64
2021/04/10 09:50:44;;;;;;;4.57;1.30;;;15.80;59.00;;;;;;4809932;29;20804;-65
2021/04/10 09:53:14;;;;;;;3.97;1.90;;;15.60;58.90;;;;;;4855179;29;20285;-66
2021/04/10 09:55:43;;;;;;;4.13;1.53;;;15.50;58.50;;;;;;4891854;29;20199;-67
2021/04/10 09:58:11;;;;;;;2.03;0.90;;;15.40;58.50;;;;;;4922569;29;20244;-66
2021/04/10 10:00:39;;;;;;;2.63;1.33;;;15.20;58.50;;;;;;4929484;29;20279;-65
2021/04/10 10:03:07;;;;;;;2.03;1.03;;;15.20;58.80;;;;;;4931015;29;20628;-67
2021/04/10 10:05:35;;;;;;;2.23;0.83;;;15.20;58.60;;;;;;4929658;29;20212;-66
2021/04/10 10:08:03;;;;;;;2.30;0.80;;;15.20;58.70;;;;;;4930083;29;20203;-67
2021/04/10 10:10:34;;;;;;;3.90;1.20;;;15.20;58.60;;;;;;4930062;29;20313;-66
2021/04/10 10:13:03;;;;;;;1.40;1.00;;;15.10;58.50;;;;;;4938306;28;20209;-66
2021/04/10 10:15:30;;;;;;;1.90;1.10;;;15.10;58.50;;;;;;4928813;29;20224;-67
2021/04/10 10:17:57;;;;;;;1.17;0.97;;;15.10;58.30;;;;;;4929916;29;20708;-66
2021/04/10 10:20:24;;;;;;;1.20;0.90;;;15.30;58.30;;;;;;4929813;29;20230;-66
2021/04/10 10:22:51;;;;;;;1.47;0.80;;;15.70;58.00;;;;;;4931048;29;20260;-66
2021/04/10 10:25:18;;;;;;;1.13;1.00;;;15.90;57.20;;;;;;4929405;29;20676;-66
2021/04/10 10:27:47;;;;;;;4.20;1.10;;;16.10;56.60;;;;;;4946321;28;20305;-66
2021/04/10 10:30:15;;;;;;;1.77;1.10;;;16.10;56.00;;;;;;4933121;29;20666;-66
2021/04/10 10:32:46;;;;;;;1.47;1.07;;;16.10;55.80;;;;;;4936097;29;20221;-67
2021/04/10 10:35:17;;;;;;;2.20;1.10;;;16.10;55.80;;;;;;4935974;29;20201;-68
2021/04/10 10:37:46;;;;;;;2.53;1.10;;;16.00;55.70;;;;;;4933927;29;20271;-67
2021/04/10 10:40:20;;;;;;;2.83;1.00;;;16.00;55.70;;;;;;4931882;29;20233;-66
2021/04/10 10:42:59;;;;;;;3.30;0.83;;;15.90;55.80;;;;;;4932011;29;20293;-67
2021/04/10 10:45:39;;;;;;;5.00;1.40;;;15.80;55.80;;;;;;4937692;29;20283;-66
2021/04/10 10:48:17;;;;;;;2.37;1.00;;;15.80;55.50;;;;;;4935974;29;21059;-67
2021/04/10 10:50:44;;;;;;;4.97;1.37;;;15.80;55.50;;;;;;4929101;29;20296;-67
2021/04/10 10:53:16;;;;;;;3.17;1.10;;;15.70;55.40;;;;;;4936238;29;20220;-67
2021/04/10 10:56:00;;;;;;;1.37;1.10;;;15.70;56.00;;;;;;4932647;29;20665;-67
2021/04/10 10:58:33;;;;;;;5.03;1.20;;;15.60;55.20;;;;;;4929482;29;20233;-66
2021/04/10 11:01:00;;;;;;;1.70;1.10;;;15.60;55.00;;;;;;4929979;29;20671;-66
2021/04/10 11:03:27;;;;;;;1.30;1.13;;;15.60;55.20;;;;;;4927902;29;20229;-66
2021/04/10 11:05:54;;;;;;;1.60;1.20;;;15.70;55.20;;;;;;4928147;29;20213;-66
2021/04/10 11:08:23;;;;;;;3.20;1.40;;;15.80;55.00;;;;;;4936134;29;20206;-64
2021/04/10 11:10:52;;;;;;;2.50;1.20;;;15.90;54.80;;;;;;4927970;29;20205;-64
2021/04/10 11:13:19;;;;;;;2.07;1.20;;;16.10;54.60;;;;;;4929591;29;20294;-66
2021/04/10 11:15:47;;;;;;;1.93;1.37;;;16.10;54.10;;;;;;4927321;29;20206;-65
2021/04/10 11:18:27;;;;;;;1.90;1.20;;;16.10;54.00;;;;;;4930257;29;20219;-66
2021/04/10 11:21:20;;;;;;;2.27;1.20;;;16.00;54.10;;;;;;4929762;29;20267;-66
2021/04/10 11:24:19;;;;;;;2.17;1.10;;;16.00;54.10;;;;;;4930140;29;20300;-65
2021/04/10 11:26:52;;;;;;;2.30;1.47;;;15.90;54.10;;;;;;4869194;29;20286;-66
2021/04/10 11:29:30;;;;;;;2.63;1.23;;;15.90;54.10;;;;;;4851259;29;20207;-66
2021/04/10 11:32:16;;;;;;;1.20;0.90;;;15.90;54.20;;;;;;4873223;29;20243;-67
2021/04/10 11:34:55;;;;;;;2.10;1.30;;;15.80;54.10;;;;;;4868027;29;20299;-67
2021/04/10 11:37:36;;;;;;;7.47;1.93;;;15.80;54.10;;;;;;4864116;29;20299;-67
2021/04/10 11:40:05;;;;;;;8.00;1.90;;;15.70;54.40;;;;;;4875471;29;20226;-66
2021/04/10 11:42:33;;;;;;;3.97;1.47;;;15.50;55.30;;;;;;4861156;29;20212;-67
2021/04/10 11:45:00;;;;;;;6.87;1.57;;;15.20;55.90;;;;;;4863671;29;20329;-66
2021/04/10 11:47:29;;;;;;;3.07;1.60;;;15.10;56.70;;;;;;4869457;29;20335;-66
2021/04/10 11:50:07;;;;;;;8.87;2.50;;;14.90;57.30;;;;;;4867935;29;20247;-65
2021/04/10 11:52:34;;;;;;;15.37;2.63;;;14.60;58.40;;;;;;4851493;29;20699;-66
2021/04/10 11:55:07;;;;;;;8.10;2.20;;;14.30;59.30;;;;;;4868696;29;20237;-65
2021/04/10 11:57:36;;;;;;;6.97;2.50;;;14.00;60.10;;;;;;4894506;29;20234;-65
2021/04/10 12:00:06;;;;;;;9.20;2.33;;;13.70;60.80;;;;;;4927880;29;20516;-66
2021/04/10 12:02:36;;;;;;;8.03;2.53;;;13.40;61.70;;;;;;4928815;29;20195;-67
2021/04/10 12:05:19;;;;;;;6.63;2.60;;;13.20;62.60;;;;;;4930819;29;20284;-67
2021/04/10 12:08:08;;;;;;;9.57;2.43;;;13.00;63.40;;;;;;4931680;29;20222;-67
2021/04/10 12:10:37;;;;;;;6.97;2.00;;;12.80;64.00;;;;;;4934569;28;20681;-67
2021/04/10 12:13:04;;;;;;;10.30;2.70;;;12.80;64.60;;;;;;4929356;29;20570;-67
2021/04/10 12:15:32;;;;;;;3.57;2.00;;;12.70;65.00;;;;;;4930234;29;20674;-67
2021/04/10 12:17:59;;;;;;;4.27;1.90;;;12.60;65.30;;;;;;4932698;29;20201;-67
2021/04/10 12:20:26;;;;;;;7.07;2.00;;;12.60;65.20;;;;;;4931117;29;20601;-67
2021/04/10 12:22:53;;;;;;;9.20;3.13;;;12.50;65.20;;;;;;4932412;29;20280;-67
2021/04/10 12:25:20;;;;;;;6.23;2.73;;;12.40;65.80;;;;;;4931471;29;20569;-66
2021/04/10 12:27:47;;;;;;;10.07;3.23;;;12.30;66.80;;;;;;4930190;29;20209;-66
2021/04/10 12:30:15;;;;;;;8.10;2.87;;;12.20;68.10;;;;;;4931697;29;20312;-66
2021/04/10 12:32:41;;;;;;;7.07;2.27;;;12.10;69.30;;;;;;4932019;29;20696;-66
2021/04/10 12:35:09;;;;;;;8.73;2.60;;;11.90;70.70;;;;;;4931881;29;20315;-66
2021/04/10 12:37:36;;;;;;;9.90;2.97;;;11.80;71.20;;;;;;4931587;29;20200;-66
2021/04/10 12:40:05;;;;;;;8.03;2.60;;;11.60;70.50;;;;;;4929052;29;20205;-65
2021/04/10 12:42:32;;;;;;;6.70;2.43;;;11.40;70.50;;;;;;4923957;29;20191;-67
2021/04/10 12:44:59;;;;;;;5.40;1.83;;;11.20;70.80;;;;;;4930257;29;20205;-67
2021/04/10 12:47:26;;;;;;;10.83;2.20;;;11.10;71.40;;;;;;4930875;29;20294;-67
2021/04/10 12:49:53;;;;;;;8.47;2.40;;;11.00;72.20;;;;;;4936846;28;20287;-67
2021/04/10 12:52:21;;;;;;;6.43;2.30;;;11.00;73.40;;;;;;4931747;29;20225;-67
2021/04/10 12:54:48;;;;;;;10.47;3.00;;;10.90;74.20;;;;;;4931629;29;20809;-67
2021/04/10 12:57:15;;;;;;;8.57;2.60;;;10.80;75.60;;;;;;4928725;29;20328;-67
2021/04/10 12:59:42;;;;;;;9.40;2.90;;;10.60;76.60;;;;;;4930758;29;20259;-66
2021/04/10 13:02:09;;;;;;;7.83;2.30;;;10.70;78.10;;;;;;4930845;29;20209;-67
2021/04/10 13:04:36;;;;;;;5.77;2.20;;;10.50;79.30;;;;;;4931646;29;20208;-67
2021/04/10 13:07:03;;;;;;;7.00;2.50;;;10.50;80.80;;;;;;4931104;29;20267;-66